Time;durP1;ratioP1;P1;durP2;ratioP2;P2;SDS_P1;SDS_P2;PMS_P1;PMS_P2;Temp;Humidity;BMP_temperature;BMP_pressure;BME280_temperature;BME280_humidity;BME280_pressure;Samples;Min_cycle;Max_cycle;Signal;HPM_P1;HPM_P2
2024/01/24 00:00:06;;;;;;;3.13;1.48;;;;;;;6.90;100.00;100625.34;4949713;28;20269;-80
2024/01/24 00:02:36;;;;;;;4.22;1.95;;;;;;;7.01;100.00;100644.91;4963953;28;20036;-79
2024/01/24 00:05:02;;;;;;;2.58;1.80;;;;;;;7.01;100.00;100634.25;4978934;28;20034;-79
2024/01/24 00:07:28;;;;;;;;;;;;;;;7.11;100.00;100639.69;4960153;28;20042;-81
2024/01/24 00:09:54;;;;;;;3.03;1.90;;;;;;;7.08;100.00;100618.91;4976943;28;19957;-80
2024/01/24 00:12:21;;;;;;;3.72;2.05;;;;;;;7.15;100.00;100611.53;4971589;28;20575;-80
2024/01/24 00:14:47;;;;;;;4.18;2.30;;;;;;;7.18;100.00;100595.06;4973703;28;20126;-79
2024/01/24 00:17:13;;;;;;;3.55;2.25;;;;;;;7.24;100.00;100583.38;4964842;28;20130;-80
2024/01/24 00:19:38;;;;;;;4.55;2.60;;;;;;;7.31;100.00;100576.00;4957809;28;20517;-79
2024/01/24 00:22:04;;;;;;;3.47;2.50;;;;;;;7.43;100.00;100569.72;4949927;28;20071;-79
2024/01/24 00:24:30;;;;;;;4.35;3.10;;;;;;;7.49;100.00;100566.03;4965954;28;20109;-79
2024/01/24 00:26:56;;;;;;;;;;;;;;;7.48;100.00;100572.44;4970494;28;20038;-78
2024/01/24 00:29:22;;;;;;;5.32;3.60;;;;;;;7.48;100.00;100556.44;4940471;28;19919;-78
2024/01/24 00:31:48;;;;;;;4.85;3.35;;;;;;;7.55;100.00;100562.38;4954740;28;20074;-79
2024/01/24 00:34:15;;;;;;;5.90;3.83;;;;;;;7.60;100.00;100565.88;4931450;28;20515;-79
2024/01/24 00:36:41;;;;;;;6.15;4.15;;;;;;;7.62;100.00;100554.97;4940371;28;20048;-78
2024/01/24 00:39:07;;;;;;;5.32;3.83;;;;;;;7.70;100.00;100549.16;4955649;28;20085;-78
2024/01/24 00:41:33;;;;;;;5.40;4.18;;;;;;;7.75;100.00;100546.53;4943996;28;20038;-79
2024/01/24 00:43:59;;;;;;;7.70;4.40;;;;;;;7.82;100.00;100546.31;4957522;28;20027;-78
2024/01/24 00:46:25;;;;;;;7.20;4.78;;;;;;;7.89;100.00;100546.91;4955549;28;20408;-78
2024/01/24 00:48:50;;;;;;;6.40;4.43;;;;;;;7.90;100.00;100537.84;4964701;28;20038;-79
2024/01/24 00:51:16;;;;;;;6.78;4.57;;;;;;;7.99;100.00;100538.16;4944623;28;20046;-78
2024/01/24 00:53:48;;;;;;;7.18;4.88;;;;;;;8.02;100.00;100524.31;4942607;28;20046;-78
2024/01/24 00:56:14;;;;;;;6.80;4.70;;;;;;;8.06;100.00;100528.06;4958174;28;20088;-78
2024/01/24 00:58:40;;;;;;;7.00;5.05;;;;;;;8.17;100.00;100537.75;4940556;28;20470;-80
2024/01/24 01:01:05;;;;;;;7.75;4.43;;;;;;;8.21;100.00;100549.50;4962901;28;20053;-78
2024/01/24 01:03:31;;;;;;;6.63;4.60;;;;;;;8.32;100.00;100555.69;4933927;28;20468;-78
2024/01/24 01:05:56;;;;;;;6.25;4.32;;;;;;;8.34;100.00;100554.38;4960534;28;20045;-78
2024/01/24 01:08:22;;;;;;;6.13;4.20;;;;;;;8.42;100.00;100542.44;4942797;28;20031;-79
2024/01/24 01:10:48;;;;;;;6.90;3.88;;;;;;;8.43;100.00;100536.84;4961301;28;20109;-78
2024/01/24 01:13:13;;;;;;;6.35;3.63;;;;;;;8.51;100.00;100537.41;4948782;28;20041;-80
2024/01/24 01:15:40;;;;;;;6.22;3.70;;;;;;;8.56;100.00;100529.44;4955051;28;20121;-78
2024/01/24 01:18:06;;;;;;;6.03;4.25;;;;;;;8.60;100.00;100530.50;4958364;28;20089;-78
2024/01/24 01:20:32;;;;;;;4.88;3.70;;;;;;;8.62;100.00;100525.72;4938604;28;20050;-78
2024/01/24 01:22:57;;;;;;;5.15;3.17;;;;;;;8.64;100.00;100510.22;4947715;28;20049;-78
2024/01/24 01:25:23;;;;;;;5.00;3.55;;;;;;;8.70;100.00;100506.50;4946930;28;20476;-78
2024/01/24 01:27:49;;;;;;;5.28;3.40;;;;;;;8.69;100.00;100503.03;4955026;28;20041;-78
2024/01/24 01:30:15;;;;;;;4.30;2.90;;;;;;;8.79;100.00;100510.28;4946552;28;20048;-79
2024/01/24 01:32:40;;;;;;;4.80;3.08;;;;;;;8.82;100.00;100499.06;4962170;28;20035;-78
2024/01/24 01:35:07;;;;;;;3.70;2.60;;;;;;;8.90;100.00;100503.09;4960022;28;20251;-78
2024/01/24 01:37:33;;;;;;;4.57;2.97;;;;;;;8.91;100.00;100486.81;4939936;28;20175;-78
2024/01/24 01:39:59;;;;;;;3.42;2.55;;;;;;;8.95;100.00;100469.19;4959564;28;20114;-78
2024/01/24 01:42:24;;;;;;;5.38;2.72;;;;;;;8.95;100.00;100458.50;4953366;28;20043;-78
2024/01/24 01:44:50;;;;;;;3.53;2.42;;;;;;;8.96;100.00;100433.41;4959308;28;20078;-78
2024/01/24 01:47:16;;;;;;;3.65;2.10;;;;;;;9.02;100.00;100453.72;4959218;28;20475;-78
2024/01/24 01:49:43;;;;;;;5.97;2.72;;;;;;;9.11;100.00;100450.50;4957787;28;20423;-79
2024/01/24 01:52:09;;;;;;;4.57;2.50;;;;;;;9.11;100.00;100435.28;4942785;28;20420;-79
2024/01/24 01:54:36;;;;;;;;;;;;;;;9.10;100.00;100432.88;4936366;28;20094;-78
2024/01/24 01:57:04;;;;;;;3.85;2.58;;;;;;;9.13;100.00;100432.31;4942121;23;19988;-72
2024/01/24 01:59:31;;;;;;;2.30;1.70;;;;;;;9.23;100.00;100427.00;4925122;29;20413;-73
2024/01/24 02:02:00;;;;;;;4.22;1.95;;;;;;;9.26;100.00;100427.25;4928319;29;20087;-74
2024/01/24 02:04:27;;;;;;;4.60;2.17;;;;;;;9.39;100.00;100425.09;4944915;28;20513;-73
2024/01/24 02:06:55;;;;;;;4.00;2.20;;;;;;;9.45;100.00;100422.16;4928555;28;20042;-74
2024/01/24 02:09:24;;;;;;;2.92;2.20;;;;;;;9.48;100.00;100418.97;4930993;29;20043;-77
2024/01/24 02:11:56;;;;;;;3.38;2.15;;;;;;;9.48;100.00;100413.63;4953846;28;20117;-73
2024/01/24 02:14:25;;;;;;;2.15;1.73;;;;;;;9.52;100.00;100395.94;4948482;28;20059;-74
2024/01/24 02:16:52;;;;;;;3.53;2.30;;;;;;;9.50;100.00;100395.44;4947077;28;20512;-76
2024/01/24 02:19:19;;;;;;;2.17;1.52;;;;;;;9.62;100.00;100402.34;4936606;28;20039;-75
2024/01/24 02:21:46;;;;;;;;;;;;;;;9.61;100.00;100406.88;4947004;28;20157;-75
2024/01/24 02:24:12;;;;;;;2.55;1.73;;;;;;;9.72;100.00;100397.78;4947963;28;19918;-74
2024/01/24 02:26:38;;;;;;;4.20;2.05;;;;;;;9.72;100.00;100399.66;4953450;28;20039;-73
2024/01/24 02:29:06;;;;;;;3.05;1.85;;;;;;;9.64;100.00;100394.88;4955361;28;20049;-74
2024/01/24 02:31:32;;;;;;;4.25;1.88;;;;;;;9.73;100.00;100401.25;4952761;28;20115;-73
2024/01/24 02:34:00;;;;;;;2.28;1.80;;;;;;;9.66;100.00;100379.34;4944513;28;20031;-72
2024/01/24 02:36:27;;;;;;;4.60;1.90;;;;;;;9.76;100.00;100376.66;4962269;28;20050;-73
2024/01/24 02:38:53;;;;;;;3.17;1.90;;;;;;;9.81;100.00;100376.59;4949896;28;20039;-73
2024/01/24 02:41:21;;;;;;;3.95;1.90;;;;;;;9.84;100.00;100387.56;4938528;28;20042;-73
2024/01/24 02:43:46;;;;;;;2.25;1.95;;;;;;;9.88;100.00;100373.66;4951569;28;20031;-74
2024/01/24 02:46:12;;;;;;;;;;;;;;;9.94;100.00;100381.38;4939129;28;20035;-73
2024/01/24 02:48:38;;;;;;;3.67;1.80;;;;;;;9.95;100.00;100391.00;4943350;28;20234;-75
2024/01/24 02:51:05;;;;;;;4.00;1.55;;;;;;;9.97;100.00;100388.88;4952886;28;20043;-74
2024/01/24 02:53:35;;;;;;;3.75;1.88;;;;;;;10.06;100.00;100373.84;4939769;29;20035;-74
2024/01/24 02:56:03;;;;;;;2.17;1.63;;;;;;;10.08;100.00;100363.66;4954106;28;20115;-73
2024/01/24 02:58:28;;;;;;;2.75;2.20;;;;;;;10.12;100.00;100345.97;4945401;28;20044;-73
2024/01/24 03:00:55;;;;;;;3.28;2.53;;;;;;;10.14;100.00;100351.06;4956787;28;20038;-74
2024/01/24 03:03:21;;;;;;;2.63;2.13;;;;;;;10.16;100.00;100345.41;4949269;28;20516;-74
2024/01/24 03:05:48;;;;;;;3.42;2.22;;;;;;;10.20;100.00;100349.94;4918630;28;20024;-73
2024/01/24 03:08:13;;;;;;;2.80;1.88;;;;;;;10.23;100.00;100345.94;4937806;28;20122;-74
2024/01/24 03:10:39;;;;;;;2.42;1.80;;;;;;;10.24;100.00;100326.97;4957977;28;20039;-73
2024/01/24 03:13:09;;;;;;;2.50;1.67;;;;;;;10.24;100.00;100324.28;4932481;29;20057;-76
2024/01/24 03:15:35;;;;;;;2.70;1.70;;;;;;;10.22;100.00;100320.22;4946596;28;20516;-73
2024/01/24 03:18:02;;;;;;;3.42;1.70;;;;;;;10.25;100.00;100311.69;4929065;28;20043;-73
2024/01/24 03:20:36;;;;;;;1.50;1.13;;;;;;;10.32;100.00;100306.84;4952400;28;20042;-74
2024/01/24 03:23:01;;;;;;;3.90;1.42;;;;;;;10.29;100.00;100315.41;4960434;28;20058;-76
2024/01/24 03:25:27;;;;;;;2.03;1.30;;;;;;;10.24;100.00;100312.78;4933755;28;20043;-75
2024/01/24 03:27:54;;;;;;;3.70;1.65;;;;;;;10.27;100.00;100296.16;4918472;28;20035;-72
2024/01/24 03:30:19;;;;;;;3.28;1.48;;;;;;;10.29;100.00;100286.75;4932675;29;20045;-74
2024/01/24 03:32:46;;;;;;;3.40;1.80;;;;;;;10.31;100.00;100319.41;4952221;28;20564;-72
2024/01/24 03:35:15;;;;;;;2.40;1.30;;;;;;;10.38;100.00;100321.78;4936266;29;20058;-73
2024/01/24 03:37:41;;;;;;;2.83;1.35;;;;;;;10.41;100.00;100317.75;4935122;28;20040;-75
2024/01/24 03:40:07;;;;;;;;;;;;;;;10.54;100.00;100290.34;4944899;28;20062;-74
2024/01/24 03:42:34;;;;;;;1.92;1.40;;;;;;;10.55;100.00;100292.72;4938101;29;19918;-73
2024/01/24 03:45:00;;;;;;;1.42;1.00;;;;;;;10.65;100.00;100315.97;4959376;28;20031;-74
2024/01/24 03:47:26;;;;;;;1.60;1.23;;;;;;;10.70;100.00;100307.06;4954976;28;20068;-73
2024/01/24 03:49:52;;;;;;;3.08;1.10;;;;;;;10.77;100.00;100311.03;4941653;28;20043;-75
2024/01/24 03:52:20;;;;;;;4.90;0.82;;;;;;;10.79;100.00;100324.16;4950337;28;20042;-73
2024/01/24 03:54:48;;;;;;;4.10;0.90;;;;;;;10.77;100.00;100350.41;4953600;28;20062;-73
2024/01/24 03:57:15;;;;;;;2.28;0.90;;;;;;;10.68;100.00;100349.41;4951864;28;20353;-73
2024/01/24 03:59:49;;;;;;;3.35;1.02;;;;;;;10.60;100.00;100359.63;4953774;28;20027;-72
2024/01/24 04:02:16;;;;;;;2.47;0.75;;;;;;;10.57;100.00;100351.38;4922966;28;20055;-74
2024/01/24 04:04:43;;;;;;;1.50;0.80;;;;;;;10.52;100.00;100340.69;4958277;28;20701;-72
2024/01/24 04:07:09;;;;;;;1.98;0.75;;;;;;;10.49;100.00;100338.56;4939019;28;20035;-72
2024/01/24 04:09:34;;;;;;;2.08;0.60;;;;;;;10.55;100.00;100334.78;4948865;28;20055;-73
2024/01/24 04:12:02;;;;;;;2.78;1.10;;;;;;;10.59;100.00;100333.94;4957666;28;20121;-73
2024/01/24 04:14:29;;;;;;;3.22;0.80;;;;;;;10.62;100.00;100344.06;4937482;29;20054;-73
2024/01/24 04:16:55;;;;;;;3.03;1.10;;;;;;;10.58;100.00;100324.31;4923317;28;20050;-73
2024/01/24 04:19:21;;;;;;;4.47;0.80;;;;;;;10.57;100.00;100332.63;4953909;28;20154;-73
2024/01/24 04:21:47;;;;;;;4.22;0.98;;;;;;;10.56;100.00;100331.81;4959233;28;20090;-73
2024/01/24 04:24:13;;;;;;;4.47;0.88;;;;;;;10.65;100.00;100319.44;4937908;29;20036;-73
2024/01/24 04:26:40;;;;;;;3.55;0.80;;;;;;;10.62;100.00;100346.75;4960376;28;20035;-74
2024/01/24 04:29:06;;;;;;;4.32;0.85;;;;;;;10.62;100.00;100343.28;4941376;28;20511;-73
2024/01/24 04:31:31;;;;;;;5.65;1.10;;;;;;;10.56;100.00;100321.09;4934661;29;20035;-73
2024/01/24 04:34:01;;;;;;;4.93;1.15;;;;;;;10.56;100.00;100331.81;4952312;28;20235;-73
2024/01/24 04:36:30;;;;;;;5.20;1.30;;;;;;;10.53;100.00;100310.97;4954602;28;20524;-74
2024/01/24 04:38:56;;;;;;;6.90;1.27;;;;;;;10.54;100.00;100333.97;4958067;28;20158;-72
2024/01/24 04:41:23;;;;;;;;;;;;;;;10.53;100.00;100336.94;4933645;29;20044;-73
2024/01/24 04:43:51;;;;;;;4.25;1.30;;;;;;;10.49;100.00;100323.28;4940442;28;19914;-73
2024/01/24 04:46:19;;;;;;;7.63;1.30;;;;;;;10.48;100.00;100318.22;4940363;28;20030;-73
2024/01/24 04:48:47;;;;;;;7.32;1.48;;;;;;;10.44;100.00;100307.28;4965293;28;20102;-73
2024/01/24 04:51:14;;;;;;;;;;;;;;;10.44;100.00;100311.84;4948660;28;20035;-74
2024/01/24 04:53:40;;;;;;;7.30;1.40;;;;;;;10.50;100.00;100337.47;4946848;28;19925;-73
2024/01/24 04:56:08;;;;;;;5.82;1.60;;;;;;;10.51;100.00;100333.75;4950402;28;20460;-73
2024/01/24 04:58:37;;;;;;;6.80;1.77;;;;;;;10.46;100.00;100323.06;4952199;28;20046;-72
2024/01/24 05:01:03;;;;;;;10.05;1.85;;;;;;;10.37;100.00;100337.03;4955248;28;20039;-73
2024/01/24 05:03:29;;;;;;;10.32;1.75;;;;;;;10.35;100.00;100327.69;4916897;29;20042;-75
2024/01/24 05:05:55;;;;;;;11.18;1.80;;;;;;;10.41;100.00;100331.91;4934928;28;20043;-74
2024/01/24 05:08:23;;;;;;;7.07;1.50;;;;;;;10.35;100.00;100347.22;4949847;28;20031;-73
2024/01/24 05:10:50;;;;;;;8.20;1.95;;;;;;;10.39;100.00;100336.75;4946746;28;20059;-72
2024/01/24 05:13:16;;;;;;;10.70;2.03;;;;;;;10.37;100.00;100344.28;4945957;28;20102;-73
2024/01/24 05:15:45;;;;;;;9.55;1.52;;;;;;;10.32;100.00;100334.41;4947917;28;20043;-72
2024/01/24 05:18:12;;;;;;;14.52;2.60;;;;;;;10.31;100.00;100345.38;4950958;28;20046;-72
2024/01/24 05:20:38;;;;;;;16.65;2.45;;;;;;;10.26;100.00;100350.75;4929557;29;20127;-72
2024/01/24 05:23:04;;;;;;;12.60;2.80;;;;;;;10.27;100.00;100363.06;4950192;28;20035;-73
2024/01/24 05:25:32;;;;;;;12.95;2.38;;;;;;;10.28;100.00;100359.31;4950211;28;20489;-74
2024/01/24 05:27:59;;;;;;;13.55;2.85;;;;;;;10.28;100.00;100359.31;4948870;28;20054;-73
2024/01/24 05:30:26;;;;;;;12.48;2.30;;;;;;;10.20;100.00;100367.88;4932523;29;20098;-74
2024/01/24 05:32:58;;;;;;;13.98;2.63;;;;;;;10.13;100.00;100360.16;4916751;28;20047;-73
2024/01/24 05:35:25;;;;;;;16.50;2.58;;;;;;;10.15;100.00;100351.84;4948199;28;20073;-73
2024/01/24 05:37:51;;;;;;;15.38;2.60;;;;;;;10.09;100.00;100378.66;4935605;28;20102;-72
2024/01/24 05:40:18;;;;;;;8.90;2.15;;;;;;;10.04;100.00;100372.53;4947062;28;20047;-73
2024/01/24 05:42:46;;;;;;;19.58;3.08;;;;;;;10.04;100.00;100359.16;4940252;29;20028;-73
2024/01/24 05:45:12;;;;;;;17.30;3.35;;;;;;;10.06;100.00;100365.00;4934766;28;20121;-73
2024/01/24 05:47:43;;;;;;;13.00;2.30;;;;;;;10.09;100.00;100392.03;4954732;28;20428;-74
2024/01/24 05:50:14;;;;;;;13.13;2.45;;;;;;;10.06;100.00;100389.88;4949223;28;20039;-73
2024/01/24 05:52:41;;;;;;;13.48;2.40;;;;;;;10.03;100.00;100411.84;4933904;29;20125;-74
2024/01/24 05:55:11;;;;;;;17.48;3.13;;;;;;;9.89;100.00;100424.22;4938615;28;20031;-74
2024/01/24 05:57:39;;;;;;;17.58;3.05;;;;;;;9.86;100.00;100408.69;4948929;28;20417;-73
2024/01/24 06:00:08;;;;;;;11.57;2.40;;;;;;;9.75;100.00;100423.97;4938130;28;20122;-73
2024/01/24 06:02:35;;;;;;;14.73;2.20;;;;;;;9.75;100.00;100429.31;4923157;29;20032;-73
2024/01/24 06:05:03;;;;;;;15.60;3.30;;;;;;;9.81;100.00;100417.53;4947595;28;20043;-73
2024/01/24 06:07:31;;;;;;;15.60;2.72;;;;;;;9.80;100.00;100409.78;4944016;28;20067;-73
2024/01/24 06:09:57;;;;;;;;;;;;;;;9.87;100.00;100420.19;4914555;28;20039;-73
2024/01/24 06:12:24;;;;;;;14.20;1.88;;;;;;;9.84;100.00;100418.88;4930049;29;19924;-73
2024/01/24 06:14:55;;;;;;;11.40;2.53;;;;;;;9.73;100.00;100404.72;4949595;28;20038;-73
2024/01/24 06:17:22;;;;;;;13.25;2.30;;;;;;;9.74;100.00;100427.72;4950938;28;20111;-74
2024/01/24 06:19:51;;;;;;;14.43;2.53;;;;;;;9.71;100.00;100428.25;4950727;28;20038;-74
2024/01/24 06:22:18;;;;;;;14.98;2.28;;;;;;;9.68;100.00;100430.66;4950299;28;20039;-73
2024/01/24 06:24:44;;;;;;;12.63;2.53;;;;;;;9.71;100.00;100430.13;4950211;28;20051;-75
2024/01/24 06:27:11;;;;;;;12.18;2.67;;;;;;;9.76;100.00;100417.56;4930810;28;20074;-74
2024/01/24 06:29:37;;;;;;;15.23;2.65;;;;;;;9.75;100.00;100444.56;4945269;28;20031;-73
2024/01/24 06:32:03;;;;;;;12.52;2.40;;;;;;;9.73;100.00;100442.16;4946256;28;20045;-79
2024/01/24 06:34:29;;;;;;;11.93;2.40;;;;;;;9.72;100.00;100439.75;4945238;28;20066;-76
2024/01/24 06:36:55;;;;;;;12.80;3.10;;;;;;;9.74;100.00;100449.09;4941355;28;20039;-75
2024/01/24 06:39:21;;;;;;;17.27;3.40;;;;;;;9.66;100.00;100441.63;4946334;28;20039;-77
2024/01/24 06:41:46;;;;;;;13.90;2.42;;;;;;;9.65;100.00;100445.38;4947620;28;20484;-77
2024/01/24 06:44:14;;;;;;;18.00;2.72;;;;;;;9.67;100.00;100445.09;4926808;28;20027;-76
2024/01/24 06:46:42;;;;;;;17.65;3.13;;;;;;;9.58;100.00;100439.53;4928953;29;20035;-79
2024/01/24 06:49:07;;;;;;;16.70;3.67;;;;;;;9.54;100.00;100444.59;4945691;28;20058;-76
2024/01/24 06:51:33;;;;;;;19.35;3.25;;;;;;;9.53;100.00;100440.31;4948481;28;20043;-76
2024/01/24 06:53:59;;;;;;;15.07;2.65;;;;;;;9.42;100.00;100457.47;4948024;28;20126;-77
2024/01/24 06:56:25;;;;;;;16.48;3.17;;;;;;;9.27;100.00;100454.78;4916620;28;20198;-75
2024/01/24 06:58:52;;;;;;;22.00;3.85;;;;;;;9.19;100.00;100452.63;4961013;28;20027;-76
2024/01/24 07:01:17;;;;;;;17.25;2.65;;;;;;;9.13;100.00;100443.00;4943817;28;20130;-74
2024/01/24 07:03:44;;;;;;;13.68;2.47;;;;;;;9.17;100.00;100449.44;4927078;29;20039;-74
2024/01/24 07:06:10;;;;;;;16.33;3.13;;;;;;;9.16;100.00;100463.88;4926876;28;20035;-75
2024/01/24 07:08:39;;;;;;;16.52;2.88;;;;;;;9.13;100.00;100453.69;4944692;28;20035;-76
2024/01/24 07:11:06;;;;;;;15.10;3.03;;;;;;;9.20;100.00;100464.91;4910150;28;20095;-76
2024/01/24 07:13:31;;;;;;;15.77;3.00;;;;;;;9.25;100.00;100457.72;4946070;28;20039;-75
2024/01/24 07:15:57;;;;;;;16.77;2.72;;;;;;;9.32;100.00;100491.38;4949463;28;20051;-74
2024/01/24 07:18:23;;;;;;;14.85;2.45;;;;;;;9.17;100.00;100470.81;4950261;28;20058;-76
2024/01/24 07:20:50;;;;;;;20.55;3.47;;;;;;;9.11;100.00;100463.84;4933320;29;20070;-74
2024/01/24 07:23:17;;;;;;;18.92;2.80;;;;;;;9.02;100.00;100459.06;4947672;28;20063;-75
2024/01/24 07:25:42;;;;;;;12.50;2.50;;;;;;;8.93;100.00;100491.88;4945376;28;20061;-75
2024/01/24 07:28:08;;;;;;;20.92;3.10;;;;;;;8.87;100.00;100500.94;4945874;28;20051;-74
2024/01/24 07:30:34;;;;;;;14.60;2.58;;;;;;;8.90;100.00;100473.72;4932758;28;20714;-78
2024/01/24 07:32:59;;;;;;;21.30;3.65;;;;;;;8.93;100.00;100449.94;4936236;28;20039;-77
2024/01/24 07:35:25;;;;;;;23.48;3.20;;;;;;;9.03;100.00;100466.00;4935625;29;20039;-79
2024/01/24 07:37:51;;;;;;;19.20;3.55;;;;;;;9.08;100.00;100477.72;4933506;29;20046;-76
2024/01/24 07:40:18;;;;;;;;;;;;;;;9.11;100.00;100461.19;4959888;28;20035;-79
2024/01/24 07:42:44;;;;;;;21.58;3.42;;;;;;;9.07;100.00;100500.19;4950406;28;19964;-77
2024/01/24 07:45:10;;;;;;;26.23;3.67;;;;;;;9.04;100.00;100482.81;4934908;28;20407;-77
2024/01/24 07:47:36;;;;;;;21.25;3.28;;;;;;;9.03;100.00;100498.03;4935930;28;20469;-80
2024/01/24 07:50:03;;;;;;;23.48;3.60;;;;;;;9.02;100.00;100515.16;4959758;28;20071;-79
2024/01/24 07:52:28;;;;;;;23.23;2.88;;;;;;;9.05;100.00;100488.97;4939170;28;20127;-79
2024/01/24 07:54:54;;;;;;;15.65;2.92;;;;;;;9.10;100.00;100505.00;4931615;29;20118;-79
2024/01/24 07:57:19;;;;;;;22.25;3.60;;;;;;;9.10;100.00;100486.31;4934363;28;20043;-78
2024/01/24 07:59:46;;;;;;;22.25;3.58;;;;;;;9.14;100.00;100508.72;4928352;28;20086;-74
2024/01/24 08:02:13;;;;;;;21.05;3.83;;;;;;;9.17;100.00;100494.84;4920571;28;20039;-79
2024/01/24 08:04:38;;;;;;;19.63;3.50;;;;;;;9.21;100.00;100511.94;4945425;28;20292;-75
2024/01/24 08:07:04;;;;;;;20.58;3.67;;;;;;;9.22;100.00;100521.59;4931224;28;20047;-79
2024/01/24 08:09:30;;;;;;;;;;;;;;;9.28;100.00;100528.53;4943865;28;20035;-75
2024/01/24 08:11:56;;;;;;;21.92;3.67;;;;;;;9.26;100.00;100525.31;4951026;28;20016;-78
2024/01/24 08:14:22;;;;;;;19.45;3.72;;;;;;;9.24;100.00;100532.81;4956255;28;20055;-79
2024/01/24 08:17:05;;;;;;;22.58;3.25;;;;;;;9.18;100.00;100534.66;4960004;28;20543;-76
2024/01/24 08:19:32;;;;;;;20.75;3.55;;;;;;;9.23;100.00;100539.22;4929615;29;20027;-78
2024/01/24 08:21:58;;;;;;;24.02;3.67;;;;;;;9.29;100.00;100522.13;4951183;28;20035;-73
2024/01/24 08:24:25;;;;;;;20.00;3.65;;;;;;;9.28;100.00;100560.63;4923625;28;20055;-76
2024/01/24 08:26:52;;;;;;;20.40;3.25;;;;;;;9.27;100.00;100551.78;4929116;29;20034;-75
2024/01/24 08:29:19;;;;;;;22.50;3.63;;;;;;;9.31;100.00;100552.06;4960028;28;20039;-76
2024/01/24 08:31:45;;;;;;;23.05;3.60;;;;;;;9.29;100.00;100575.56;4943716;28;20039;-78
2024/01/24 08:34:11;;;;;;;22.33;4.15;;;;;;;9.29;100.00;100565.69;4945167;28;20141;-76
2024/01/24 08:36:37;;;;;;;20.92;3.58;;;;;;;9.34;100.00;100580.91;4915390;28;20529;-75
2024/01/24 08:39:06;;;;;;;20.15;3.15;;;;;;;9.35;100.00;100582.53;4920244;28;20105;-75
2024/01/24 08:41:32;;;;;;;20.20;3.53;;;;;;;9.32;100.00;100585.72;4949076;28;20448;-78
2024/01/24 08:44:02;;;;;;;19.05;3.50;;;;;;;9.41;100.00;100584.13;4954535;28;20082;-74
2024/01/24 08:46:30;;;;;;;26.52;4.50;;;;;;;9.37;100.00;100567.03;4935727;29;20090;-76
2024/01/24 08:48:55;;;;;;;20.98;3.90;;;;;;;9.38;100.00;100573.97;4945054;28;20441;-76
2024/01/24 08:51:22;;;;;;;24.38;3.95;;;;;;;9.33;100.00;100559.81;4951522;28;20127;-79
2024/01/24 08:53:47;;;;;;;;;;;;;;;9.38;100.00;100579.31;4952849;28;20039;-80
2024/01/24 08:56:14;;;;;;;23.25;3.95;;;;;;;9.36;100.00;100586.00;4930414;28;20289;-79
2024/01/24 08:58:39;;;;;;;22.02;3.85;;;;;;;9.34;100.00;100599.63;4945665;28;20039;-78
2024/01/24 09:01:06;;;;;;;19.13;3.80;;;;;;;9.38;100.00;100565.16;4947753;28;20158;-74
2024/01/24 09:03:31;;;;;;;23.98;5.05;;;;;;;9.28;100.00;100592.69;4928581;29;20042;-75
2024/01/24 09:05:57;;;;;;;24.67;3.80;;;;;;;9.31;100.00;100581.44;4928890;29;20035;-76
2024/01/24 09:08:24;;;;;;;18.73;3.63;;;;;;;9.33;100.00;100570.50;4916527;28;20032;-73
2024/01/24 09:10:52;;;;;;;25.60;5.05;;;;;;;9.34;100.00;100599.63;4963329;28;20612;-78
2024/01/24 09:13:21;;;;;;;22.00;4.53;;;;;;;9.36;100.00;100608.19;4933278;28;20098;-78
2024/01/24 09:15:47;;;;;;;21.73;3.88;;;;;;;9.39;100.00;100610.31;4933455;28;20031;-78
2024/01/24 09:18:17;;;;;;;26.98;4.20;;;;;;;9.43;100.00;100615.97;4949032;28;20050;-79
2024/01/24 09:20:44;;;;;;;20.58;3.95;;;;;;;9.36;100.00;100612.75;4932849;28;21448;-75
2024/01/24 09:23:09;;;;;;;24.33;3.92;;;;;;;9.37;100.00;100630.38;4931633;28;20043;-78
2024/01/24 09:25:35;;;;;;;20.88;3.80;;;;;;;9.32;100.00;100617.78;4932906;29;20031;-79
2024/01/24 09:28:02;;;;;;;22.88;4.05;;;;;;;9.41;100.00;100624.22;4943580;28;20038;-83
2024/01/24 09:30:27;;;;;;;28.02;4.85;;;;;;;9.36;100.00;100610.88;4943472;28;20118;-78
2024/01/24 09:32:53;;;;;;;20.90;3.47;;;;;;;9.40;100.00;100629.84;4947391;28;20611;-78
2024/01/24 09:35:20;;;;;;;;;;;;;;;9.32;100.00;100620.47;4928913;28;20551;-74
2024/01/24 09:37:45;;;;;;;19.48;3.08;;;;;;;9.35;100.00;100633.31;4944634;28;19922;-75
2024/01/24 09:40:14;;;;;;;22.23;4.35;;;;;;;9.33;100.00;100640.78;4929524;28;20043;-76
2024/01/24 09:42:43;;;;;;;17.75;3.13;;;;;;;9.31;100.00;100642.91;4946476;28;20097;-75
2024/01/24 09:45:09;;;;;;;21.58;3.78;;;;;;;9.24;100.00;100615.63;4948774;28;20030;-78
2024/01/24 09:47:37;;;;;;;23.95;4.20;;;;;;;9.35;100.00;100619.13;4947947;28;20043;-76
2024/01/24 09:50:04;;;;;;;21.95;3.83;;;;;;;9.30;100.00;100625.28;4931281;28;20042;-77
2024/01/24 09:52:34;;;;;;;23.05;3.75;;;;;;;9.32;100.00;100639.16;4932482;28;20101;-75
2024/01/24 09:55:05;;;;;;;17.85;3.63;;;;;;;9.32;100.00;100638.38;4932131;29;20090;-72
2024/01/24 09:57:36;;;;;;;16.88;3.22;;;;;;;9.28;100.00;100633.56;4935918;28;20529;-74
2024/01/24 10:00:04;;;;;;;18.20;3.85;;;;;;;9.28;100.00;100617.53;4950910;28;20039;-76
2024/01/24 10:02:31;;;;;;;20.40;3.45;;;;;;;9.32;100.00;100633.03;4942016;28;20027;-76
2024/01/24 10:05:00;;;;;;;19.38;3.60;;;;;;;9.27;100.00;100652.50;4947239;28;20073;-75
2024/01/24 10:07:26;;;;;;;22.33;4.05;;;;;;;9.30;100.00;100643.97;4950081;28;20054;-75
2024/01/24 10:10:15;;;;;;;;;;;;;;;9.30;100.00;100643.97;4928840;28;20090;-75
2024/01/24 10:12:45;;;;;;;22.35;3.40;;;;;;;9.35;100.00;100651.19;4950848;28;19920;-74
2024/01/24 10:15:12;;;;;;;18.27;3.83;;;;;;;9.32;100.00;100663.22;4915947;28;20054;-73
2024/01/24 10:17:42;;;;;;;16.10;2.90;;;;;;;9.30;100.00;100646.66;4970554;28;20048;-75
2024/01/24 10:20:11;;;;;;;19.25;4.05;;;;;;;9.32;100.00;100649.88;4948831;28;20089;-74
2024/01/24 10:22:44;;;;;;;21.67;3.25;;;;;;;9.32;100.00;100649.88;4948531;28;20043;-73
2024/01/24 10:25:14;;;;;;;19.88;3.70;;;;;;;9.32;100.00;100665.91;4948749;28;20094;-73
2024/01/24 10:27:46;;;;;;;17.48;3.38;;;;;;;9.33;100.00;100656.00;4954958;28;20090;-73
2024/01/24 10:30:15;;;;;;;20.15;3.75;;;;;;;9.31;100.00;100637.56;4928420;28;20031;-81
2024/01/24 10:32:48;;;;;;;17.00;3.40;;;;;;;9.32;100.00;100647.19;4917123;29;20095;-74
2024/01/24 10:35:15;;;;;;;20.20;3.17;;;;;;;9.35;100.00;100665.38;4959733;28;20088;-74
2024/01/24 10:37:47;;;;;;;19.20;3.33;;;;;;;9.31;100.00;100666.97;4948096;28;20051;-74
2024/01/24 10:40:16;;;;;;;25.17;3.95;;;;;;;9.26;100.00;100694.47;4942346;28;20122;-74
2024/01/24 10:42:42;;;;;;;21.10;3.25;;;;;;;9.15;100.00;100668.00;4939451;28;20028;-73
2024/01/24 10:45:10;;;;;;;20.58;4.45;;;;;;;9.12;100.00;100688.00;4942385;28;20043;-73
2024/01/24 10:47:36;;;;;;;22.10;3.08;;;;;;;9.10;100.00;100681.31;4939872;28;20031;-74
2024/01/24 10:50:04;;;;;;;16.30;3.17;;;;;;;9.08;100.00;100676.25;4928701;29;20043;-73
2024/01/24 10:52:35;;;;;;;24.00;3.90;;;;;;;9.11;100.00;100669.56;4961672;28;20038;-73
2024/01/24 10:55:05;;;;;;;20.83;3.30;;;;;;;9.11;100.00;100674.91;4927125;29;20036;-73
2024/01/24 10:57:34;;;;;;;18.55;2.95;;;;;;;9.12;100.00;100671.97;4940947;28;20542;-74
2024/01/24 11:00:05;;;;;;;20.13;3.45;;;;;;;9.11;100.00;100669.56;4912276;29;20047;-74
2024/01/24 11:02:34;;;;;;;16.55;3.00;;;;;;;9.11;100.00;100685.59;4944621;28;20027;-74
2024/01/24 11:05:04;;;;;;;19.42;3.15;;;;;;;9.09;100.00;100685.06;4945142;28;20027;-74
2024/01/24 11:07:37;;;;;;;23.20;3.85;;;;;;;9.10;100.00;100654.59;4947921;28;20728;-74
2024/01/24 11:10:09;;;;;;;23.55;3.40;;;;;;;9.10;100.00;100690.13;4908316;28;20044;-74
2024/01/24 11:12:35;;;;;;;18.45;3.67;;;;;;;9.08;100.00;100702.13;4931211;28;20039;-75
2024/01/24 11:15:06;;;;;;;19.63;2.70;;;;;;;9.01;100.00;100692.50;4947047;28;20028;-74
2024/01/24 11:17:33;;;;;;;20.77;3.45;;;;;;;9.03;100.00;100706.41;4946120;28;20035;-74
2024/01/24 11:20:05;;;;;;;15.20;3.10;;;;;;;8.99;100.00;100705.31;4947504;28;20033;-74